Time;durP1;ratioP1;P1;durP2;ratioP2;P2;SDS_P1;SDS_P2;PMS_P1;PMS_P2;Temp;Humidity;BMP_temperature;BMP_pressure;BME280_temperature;BME280_humidity;BME280_pressure;Samples;Min_cycle;Max_cycle;Signal;HPM_P1;HPM_P2
2023/12/02 00:02:25;;;;;;;22.38;3.85;;;18.60;39.00;;;;;;5036690;28;20025;-55
2023/12/02 00:04:51;;;;;;;16.50;3.45;;;18.70;38.90;;;;;;5036536;28;20475;-54
2023/12/02 00:07:17;;;;;;;14.02;3.83;;;18.60;38.00;;;;;;5036567;28;20053;-55
2023/12/02 00:09:43;;;;;;;14.90;4.72;;;18.70;38.80;;;;;;5036453;28;20323;-55
2023/12/02 00:12:09;;;;;;;13.32;3.92;;;18.70;38.60;;;;;;5036466;28;20061;-55
2023/12/02 00:14:35;;;;;;;21.40;4.07;;;18.70;38.30;;;;;;5036482;28;20025;-54
2023/12/02 00:17:01;;;;;;;16.13;3.60;;;18.80;38.20;;;;;;5036253;28;20037;-55
2023/12/02 00:19:27;;;;;;;13.60;3.05;;;18.70;38.60;;;;;;5036375;28;20467;-55
2023/12/02 00:21:52;;;;;;;20.17;3.85;;;18.70;39.90;;;;;;5036167;28;20037;-55
2023/12/02 00:24:18;;;;;;;16.63;3.25;;;18.50;39.30;;;;;;5036070;28;20042;-55
2023/12/02 00:26:44;;;;;;;20.70;4.97;;;18.50;38.30;;;;;;5035775;28;20083;-54
2023/12/02 00:29:11;;;;;;;15.85;3.35;;;18.70;38.60;;;;;;5036114;28;20022;-54
2023/12/02 00:31:37;;;;;;;17.52;3.80;;;18.60;38.60;;;;;;5036079;28;20353;-55
2023/12/02 00:34:02;;;;;;;25.92;4.70;;;18.70;39.00;;;;;;5036080;28;20022;-55
2023/12/02 00:36:31;;;;;;;16.13;4.57;;;18.60;38.40;;;;;;5035809;28;20037;-55
2023/12/02 00:38:56;;;;;;;15.40;3.97;;;18.70;38.90;;;;;;5035798;28;20026;-55
2023/12/02 00:41:22;;;;;;;20.63;4.03;;;18.70;39.00;;;;;;5036061;28;20391;-55
2023/12/02 00:43:48;;;;;;;11.80;3.13;;;18.60;39.00;;;;;;5036136;28;20387;-55
2023/12/02 00:46:14;;;;;;;14.95;3.85;;;18.60;39.40;;;;;;5035956;28;20398;-55
2023/12/02 00:48:40;;;;;;;20.65;4.43;;;18.60;39.20;;;;;;5035917;28;20121;-54
2023/12/02 00:51:06;;;;;;;16.00;4.47;;;18.60;39.40;;;;;;5035597;28;20037;-55
2023/12/02 00:53:32;;;;;;;15.38;3.55;;;18.40;40.30;;;;;;5035985;28;20080;-55
2023/12/02 00:55:58;;;;;;;15.20;3.05;;;18.30;40.70;;;;;;5035771;28;20033;-55
2023/12/02 00:58:24;;;;;;;20.70;4.10;;;18.20;40.60;;;;;;5035630;28;20040;-55
2023/12/02 01:00:50;;;;;;;21.20;4.22;;;18.10;40.60;;;;;;5035690;28;20471;-54
2023/12/02 01:03:16;;;;;;;19.75;4.95;;;18.10;41.10;;;;;;5035583;28;20521;-54
2023/12/02 01:05:42;;;;;;;19.42;5.63;;;17.90;41.10;;;;;;5035404;28;20480;-55
2023/12/02 01:08:07;;;;;;;41.97;23.42;;;17.80;42.10;;;;;;5035329;28;20407;-55
2023/12/02 01:10:33;;;;;;;21.52;8.05;;;17.60;43.60;;;;;;5035474;28;20048;-55
2023/12/02 01:12:59;;;;;;;13.48;3.65;;;17.50;43.50;;;;;;5035508;28;20083;-54
2023/12/02 01:15:25;;;;;;;15.93;4.90;;;17.20;44.90;;;;;;5035715;28;20104;-55
2023/12/02 01:17:51;;;;;;;21.17;5.65;;;17.10;45.30;;;;;;5035337;28;20033;-55
2023/12/02 01:20:17;;;;;;;19.88;6.70;;;16.90;45.20;;;;;;5035305;28;20121;-55
2023/12/02 01:22:43;;;;;;;20.58;5.93;;;16.80;46.30;;;;;;5035471;28;20033;-55
2023/12/02 01:25:09;;;;;;;33.33;10.60;;;16.70;46.10;;;;;;5035086;28;20040;-55
2023/12/02 01:27:35;;;;;;;52.17;17.67;;;16.40;48.00;;;;;;5035396;28;20045;-54
2023/12/02 01:30:01;;;;;;;35.45;12.50;;;16.20;48.50;;;;;;5035512;28;20030;-54
2023/12/02 01:32:27;;;;;;;40.53;9.48;;;16.10;49.40;;;;;;5035359;28;20471;-54
2023/12/02 01:34:53;;;;;;;45.00;11.50;;;15.80;50.80;;;;;;5035112;28;20113;-55
2023/12/02 01:37:18;;;;;;;38.70;15.30;;;15.60;51.80;;;;;;5035152;28;20033;-54
2023/12/02 01:39:44;;;;;;;59.38;20.13;;;15.40;53.20;;;;;;5037509;28;20042;-55
2023/12/02 01:42:10;;;;;;;93.30;35.45;;;15.10;53.90;;;;;;5039212;28;20021;-55
2023/12/02 01:44:36;;;;;;;138.07;47.58;;;14.90;54.60;;;;;;5039294;28;20029;-54
2023/12/02 01:47:03;;;;;;;63.50;23.58;;;14.80;54.10;;;;;;5039029;28;20021;-54
2023/12/02 01:49:31;;;;;;;122.60;40.95;;;14.60;55.30;;;;;;5039085;28;20212;-54
2023/12/02 01:51:58;;;;;;;190.93;61.40;;;14.60;56.20;;;;;;5039071;28;20059;-54
2023/12/02 01:54:24;;;;;;;338.63;106.97;;;14.40;57.00;;;;;;5038933;28;20033;-54
2023/12/02 01:56:50;;;;;;;223.23;69.55;;;14.30;57.10;;;;;;5038909;28;20037;-54
2023/12/02 01:59:42;;;;;;;148.35;50.60;;;14.20;57.40;;;;;;5038566;28;20495;-54
2023/12/02 02:02:08;;;;;;;151.13;48.58;;;14.10;57.90;;;;;;5038861;28;20100;-54
2023/12/02 02:04:34;;;;;;;135.73;40.47;;;14.00;57.80;;;;;;5038825;28;20487;-54
2023/12/02 02:07:00;;;;;;;110.70;33.17;;;13.90;58.90;;;;;;5038722;28;20378;-54
2023/12/02 02:09:26;;;;;;;179.27;49.35;;;13.80;58.60;;;;;;5038737;28;20093;-54
2023/12/02 02:11:52;;;;;;;240.07;66.47;;;13.80;59.20;;;;;;5038731;28;20121;-54
2023/12/02 02:14:18;;;;;;;134.18;36.53;;;13.60;59.60;;;;;;5038606;28;20021;-54
2023/12/02 02:16:44;;;;;;;113.35;28.00;;;13.40;59.80;;;;;;5038599;28;20028;-54
2023/12/02 02:19:11;;;;;;;109.72;29.55;;;13.30;60.90;;;;;;5038452;28;20060;-54
2023/12/02 02:21:37;;;;;;;85.47;24.20;;;13.30;61.80;;;;;;5038612;28;20036;-54
2023/12/02 02:24:04;;;;;;;70.40;19.38;;;13.20;62.00;;;;;;5038586;28;20129;-54
2023/12/02 02:26:30;;;;;;;42.15;13.68;;;13.20;62.40;;;;;;5038345;28;20043;-54
2023/12/02 02:28:56;;;;;;;46.75;16.65;;;13.10;61.90;;;;;;5038421;28;20037;-54
2023/12/02 02:31:21;;;;;;;46.78;15.77;;;13.10;63.40;;;;;;5038309;28;20025;-54
2023/12/02 02:33:47;;;;;;;48.90;15.52;;;13.20;62.50;;;;;;5047557;28;20041;-54
2023/12/02 02:36:13;;;;;;;57.83;18.95;;;13.20;62.80;;;;;;5058106;28;20112;-54
2023/12/02 02:38:39;;;;;;;100.03;30.77;;;13.10;63.60;;;;;;5058183;28;20518;-54
2023/12/02 02:41:05;;;;;;;113.20;34.88;;;13.00;64.30;;;;;;5058232;28;20379;-54
2023/12/02 02:43:31;;;;;;;67.10;23.48;;;12.80;65.40;;;;;;5044882;28;20052;-54
2023/12/02 02:45:56;;;;;;;71.80;22.10;;;12.80;65.40;;;;;;5037879;28;20025;-54
2023/12/02 02:48:22;;;;;;;62.10;19.27;;;12.90;65.40;;;;;;5038431;28;20025;-54
2023/12/02 02:50:48;;;;;;;131.85;41.83;;;12.80;65.90;;;;;;5037769;28;20037;-54
2023/12/02 02:53:14;;;;;;;76.68;26.05;;;12.80;65.70;;;;;;5037988;28;20018;-54
2023/12/02 02:55:40;;;;;;;56.63;19.35;;;12.90;65.30;;;;;;5037303;28;20037;-55
2023/12/02 02:58:06;;;;;;;44.95;15.70;;;13.00;64.80;;;;;;5037888;28;20391;-54
2023/12/02 03:00:33;;;;;;;54.13;19.65;;;13.00;65.50;;;;;;5037973;28;20076;-54
2023/12/02 03:02:58;;;;;;;57.63;18.52;;;12.90;66.20;;;;;;5037803;28;20171;-54
2023/12/02 03:05:24;;;;;;;40.08;16.05;;;12.80;66.90;;;;;;5036665;28;20053;-54
2023/12/02 03:07:50;;;;;;;50.75;17.85;;;12.70;67.40;;;;;;5037470;28;20076;-54
2023/12/02 03:10:16;;;;;;;44.92;15.82;;;12.70;67.80;;;;;;5037670;28;20055;-54
2023/12/02 03:12:42;;;;;;;55.97;17.92;;;12.60;68.50;;;;;;5037688;28;20105;-54
2023/12/02 03:15:08;;;;;;;49.15;16.33;;;12.50;69.40;;;;;;5037559;28;20038;-54
2023/12/02 03:17:34;;;;;;;61.25;19.17;;;12.60;68.60;;;;;;5037293;28;20088;-54
2023/12/02 03:20:00;;;;;;;58.13;18.25;;;12.70;68.10;;;;;;5037425;28;20482;-54
2023/12/02 03:22:26;;;;;;;99.68;31.48;;;12.80;67.50;;;;;;5037464;28;20033;-54
2023/12/02 03:24:51;;;;;;;110.38;32.53;;;12.90;67.20;;;;;;5037334;28;20040;-54
2023/12/02 03:27:17;;;;;;;75.15;23.13;;;12.90;67.40;;;;;;5037348;28;20068;-54
2023/12/02 03:29:43;;;;;;;76.25;25.90;;;12.90;67.10;;;;;;5037349;28;20025;-54
2023/12/02 03:32:09;;;;;;;40.97;15.02;;;13.00;66.00;;;;;;5037277;28;20527;-54
2023/12/02 03:34:35;;;;;;;28.75;10.55;;;13.10;65.40;;;;;;5037285;28;20111;-54
2023/12/02 03:37:01;;;;;;;42.20;14.85;;;13.30;62.20;;;;;;5036912;28;20044;-54
2023/12/02 03:39:26;;;;;;;57.35;16.63;;;13.60;61.20;;;;;;5037175;28;20370;-54
2023/12/02 03:41:52;;;;;;;83.55;28.33;;;13.60;62.60;;;;;;5036984;28;20029;-54
2023/12/02 03:44:18;;;;;;;73.15;26.83;;;13.50;62.50;;;;;;5037498;28;20503;-54
2023/12/02 03:46:44;;;;;;;63.38;20.65;;;13.50;63.20;;;;;;5036893;28;20030;-54
2023/12/02 03:49:10;;;;;;;69.28;23.80;;;13.50;63.30;;;;;;5036964;28;20029;-54
2023/12/02 03:51:36;;;;;;;66.97;20.70;;;13.40;63.60;;;;;;5036659;28;20053;-54
2023/12/02 03:54:01;;;;;;;86.85;31.20;;;13.40;62.50;;;;;;5036867;28;20103;-54
2023/12/02 03:56:27;;;;;;;69.68;28.58;;;13.50;61.30;;;;;;5036644;28;20026;-54
2023/12/02 03:58:53;;;;;;;49.80;19.23;;;13.50;60.70;;;;;;5036810;28;20030;-54
2023/12/02 04:01:19;;;;;;;39.90;15.18;;;13.90;59.50;;;;;;5036098;28;20043;-54
2023/12/02 04:03:47;;;;;;;21.35;5.97;;;14.00;59.40;;;;;;5036667;28;20025;-54
2023/12/02 04:06:13;;;;;;;37.85;12.48;;;14.10;57.00;;;;;;5036688;28;20040;-54
2023/12/02 04:08:39;;;;;;;46.50;16.20;;;14.20;57.10;;;;;;5036534;28;20418;-54
2023/12/02 04:11:06;;;;;;;19.42;6.78;;;14.20;57.80;;;;;;5036389;28;20062;-54
2023/12/02 04:13:33;;;;;;;30.60;10.57;;;14.40;54.60;;;;;;5036497;28;20123;-54
2023/12/02 04:15:59;;;;;;;27.13;8.93;;;14.70;54.40;;;;;;5036465;28;20026;-54
2023/12/02 04:18:25;;;;;;;36.08;13.65;;;14.90;53.30;;;;;;5036322;28;20113;-54
2023/12/02 04:20:51;;;;;;;33.63;10.10;;;14.90;54.70;;;;;;5036312;28;20056;-54
2023/12/02 04:23:16;;;;;;;32.13;9.25;;;15.00;54.20;;;;;;5036495;28;20021;-54
2023/12/02 04:25:42;;;;;;;35.88;9.05;;;15.00;53.30;;;;;;5036337;28;20025;-54
2023/12/02 04:28:08;;;;;;;48.38;12.63;;;14.90;53.90;;;;;;5036084;28;20038;-54
2023/12/02 04:30:35;;;;;;;61.97;20.05;;;14.90;55.00;;;;;;5036139;28;20044;-54
2023/12/02 04:33:01;;;;;;;62.20;20.55;;;14.60;57.10;;;;;;5036017;28;20411;-54
2023/12/02 04:35:26;;;;;;;70.07;22.98;;;14.50;56.20;;;;;;5036024;28;20021;-54
2023/12/02 04:37:52;;;;;;;61.72;19.13;;;14.50;56.80;;;;;;5035928;28;20044;-54
2023/12/02 04:40:19;;;;;;;75.97;25.15;;;14.50;55.20;;;;;;5035793;28;20029;-54
2023/12/02 04:42:45;;;;;;;44.90;14.68;;;14.30;57.50;;;;;;5035785;28;20025;-54
2023/12/02 04:45:11;;;;;;;22.63;5.00;;;14.30;57.40;;;;;;5035892;28;20021;-54
2023/12/02 04:47:37;;;;;;;17.10;3.42;;;15.20;52.60;;;;;;5036034;28;20057;-54
2023/12/02 04:50:04;;;;;;;20.48;3.30;;;15.80;50.70;;;;;;5035724;28;20434;-54
2023/12/02 04:52:30;;;;;;;21.63;4.20;;;16.70;47.80;;;;;;5035709;28;20129;-54
2023/12/02 04:54:56;;;;;;;23.08;4.20;;;16.90;47.10;;;;;;5035702;28;20424;-54
2023/12/02 04:57:22;;;;;;;15.65;4.25;;;17.40;45.10;;;;;;5035686;28;20380;-54
2023/12/02 04:59:48;;;;;;;23.13;3.53;;;17.70;44.20;;;;;;5035726;28;20414;-55
2023/12/02 05:02:18;;;;;;;20.70;3.53;;;18.10;42.80;;;;;;5035700;28;20032;-54
2023/12/02 05:04:44;;;;;;;22.88;3.22;;;18.30;42.50;;;;;;5035687;28;20060;-54
2023/12/02 05:07:10;;;;;;;25.05;5.13;;;18.70;40.40;;;;;;5035413;28;20025;-54
2023/12/02 05:09:39;;;;;;;20.88;4.18;;;18.70;39.60;;;;;;5035625;28;20350;-55
2023/12/02 05:12:06;;;;;;;25.98;3.50;;;18.80;39.80;;;;;;5035594;28;20025;-55
2023/12/02 05:14:32;;;;;;;26.10;3.78;;;18.70;39.80;;;;;;5035625;28;20048;-54
2023/12/02 05:16:58;;;;;;;25.95;3.42;;;18.80;38.30;;;;;;5035398;28;20021;-55
2023/12/02 05:19:24;;;;;;;19.90;3.70;;;19.00;37.30;;;;;;5035468;28;20056;-54
2023/12/02 05:21:50;;;;;;;20.20;4.53;;;19.10;37.40;;;;;;5035322;28;20034;-55
2023/12/02 05:24:18;;;;;;;17.10;3.40;;;19.10;37.40;;;;;;5035348;28;20033;-54
2023/12/02 05:26:44;;;;;;;21.90;3.33;;;19.10;37.00;;;;;;5035320;28;20025;-55
2023/12/02 05:29:10;;;;;;;21.58;4.47;;;19.10;37.20;;;;;;5035381;28;20033;-55
2023/12/02 05:31:38;;;;;;;17.60;3.60;;;19.00;37.40;;;;;;5035230;28;20030;-55
2023/12/02 05:34:04;;;;;;;20.70;3.60;;;18.90;37.90;;;;;;5035336;28;20026;-54
2023/12/02 05:36:30;;;;;;;25.92;4.93;;;18.90;37.60;;;;;;5035025;28;20498;-55
2023/12/02 05:38:57;;;;;;;26.70;4.30;;;18.90;37.80;;;;;;5035290;28;20448;-55
2023/12/02 05:41:22;;;;;;;21.80;4.47;;;19.00;37.30;;;;;;5035117;28;20021;-55
2023/12/02 05:43:48;;;;;;;32.35;5.00;;;19.10;36.90;;;;;;5035199;28;20036;-55
2023/12/02 05:46:16;;;;;;;26.35;4.45;;;19.30;37.00;;;;;;5035005;28;20021;-55
2023/12/02 05:48:46;;;;;;;29.30;4.88;;;19.20;37.50;;;;;;5035400;28;20048;-55
2023/12/02 05:51:14;;;;;;;22.47;4.40;;;19.20;36.30;;;;;;5034975;28;20073;-55
2023/12/02 05:53:40;;;;;;;22.20;4.15;;;19.30;36.10;;;;;;5035216;28;20084;-55
2023/12/02 05:56:08;;;;;;;21.60;4.63;;;19.30;36.50;;;;;;5035081;28;20037;-55
2023/12/02 05:58:35;;;;;;;22.50;4.88;;;19.30;36.70;;;;;;5035100;28;20036;-55
2023/12/02 06:01:01;;;;;;;18.95;3.40;;;19.20;36.80;;;;;;5035053;28;20059;-55
2023/12/02 06:03:27;;;;;;;19.83;4.22;;;19.20;36.90;;;;;;5035069;28;20505;-55
2023/12/02 06:05:53;;;;;;;23.10;4.60;;;19.10;37.20;;;;;;5034980;28;20051;-55
2023/12/02 06:08:19;;;;;;;28.15;5.40;;;19.20;37.00;;;;;;5034653;28;20124;-55
2023/12/02 06:10:45;;;;;;;20.67;4.32;;;19.20;37.90;;;;;;5034898;28;20423;-55
2023/12/02 06:13:11;;;;;;;28.10;4.47;;;19.10;37.80;;;;;;5034807;28;20075;-55
2023/12/02 06:15:37;;;;;;;27.90;4.57;;;19.00;38.80;;;;;;5034995;28;20259;-55
2023/12/02 06:18:03;;;;;;;24.45;4.38;;;19.00;38.40;;;;;;5034862;28;20060;-55
2023/12/02 06:20:29;;;;;;;27.95;4.72;;;19.00;38.50;;;;;;5034837;28;20475;-55
2023/12/02 06:22:54;;;;;;;27.60;4.57;;;19.00;38.20;;;;;;5035011;28;20060;-55
2023/12/02 06:25:20;;;;;;;23.92;4.13;;;18.90;39.70;;;;;;5036287;28;20076;-55
2023/12/02 06:27:46;;;;;;;22.88;3.97;;;19.10;37.70;;;;;;5038355;28;20030;-55
2023/12/02 06:30:17;;;;;;;25.02;4.82;;;19.10;37.60;;;;;;5038471;28;20041;-55
2023/12/02 06:32:43;;;;;;;24.15;4.07;;;19.10;37.70;;;;;;5038335;28;20109;-55
2023/12/02 06:35:10;;;;;;;23.73;5.40;;;19.00;38.50;;;;;;5038598;28;20052;-55
2023/12/02 06:37:36;;;;;;;29.15;6.07;;;18.80;39.20;;;;;;5038162;28;20445;-55
2023/12/02 06:40:03;;;;;;;35.13;6.28;;;18.60;40.70;;;;;;5038236;28;20025;-55
2023/12/02 06:42:29;;;;;;;38.40;6.78;;;18.50;41.10;;;;;;5038004;28;20101;-55
2023/12/02 06:44:55;;;;;;;37.58;8.07;;;18.40;41.60;;;;;;5038095;28;20556;-55
2023/12/02 06:47:21;;;;;;;34.85;6.55;;;18.30;42.40;;;;;;5037980;28;20032;-55
2023/12/02 06:49:47;;;;;;;38.88;7.30;;;18.10;43.10;;;;;;5038033;28;20550;-55
2023/12/02 06:52:12;;;;;;;41.53;8.30;;;17.80;44.00;;;;;;5037886;28;20057;-55
2023/12/02 06:54:39;;;;;;;47.45;8.23;;;17.60;45.90;;;;;;5037850;28;20410;-54
2023/12/02 06:57:06;;;;;;;61.70;16.25;;;17.40;45.60;;;;;;5037838;28;20109;-55
2023/12/02 06:59:32;;;;;;;47.15;13.43;;;17.20;45.60;;;;;;5037978;28;20022;-54
2023/12/02 07:01:58;;;;;;;63.83;22.20;;;17.00;47.20;;;;;;5037791;28;20049;-54
2023/12/02 07:04:24;;;;;;;61.35;22.95;;;16.90;46.70;;;;;;5038065;28;20436;-55
2023/12/02 07:06:50;;;;;;;54.72;18.92;;;16.90;47.30;;;;;;5037802;28;20025;-55
2023/12/02 07:09:16;;;;;;;53.42;15.65;;;16.80;47.70;;;;;;5037659;28;20045;-55
2023/12/02 07:11:42;;;;;;;64.57;20.90;;;16.80;46.60;;;;;;5037590;28;20040;-55
2023/12/02 07:14:08;;;;;;;27.83;7.65;;;17.10;46.50;;;;;;5037547;28;20028;-55
2023/12/02 07:16:33;;;;;;;41.17;7.47;;;17.20;45.50;;;;;;5037501;28;20021;-55
2023/12/02 07:18:59;;;;;;;36.50;5.13;;;17.50;44.10;;;;;;5037517;28;20057;-55
2023/12/02 07:21:25;;;;;;;40.78;5.47;;;18.20;42.50;;;;;;5037460;28;20033;-54
2023/12/02 07:23:51;;;;;;;28.00;5.32;;;18.40;42.00;;;;;;5037333;28;20029;-55
2023/12/02 07:26:17;;;;;;;32.25;4.65;;;18.70;40.80;;;;;;5037165;28;20068;-55
2023/12/02 07:28:43;;;;;;;33.55;5.20;;;19.10;40.00;;;;;;5037043;28;20506;-55
2023/12/02 07:31:16;;;;;;;33.45;5.75;;;19.30;40.00;;;;;;5037197;28;20058;-55
2023/12/02 07:33:42;;;;;;;24.02;4.53;;;19.80;40.00;;;;;;5037237;28;20493;-55
2023/12/02 07:36:09;;;;;;;32.85;5.80;;;20.70;37.50;;;;;;5036255;28;20028;-55
2023/12/02 07:38:35;;;;;;;34.15;6.15;;;21.70;37.40;;;;;;5036821;28;20491;-55
2023/12/02 07:41:01;;;;;;;21.33;4.75;;;22.80;33.10;;;;;;5037091;28;20037;-55
2023/12/02 07:43:27;;;;;;;36.35;4.60;;;23.20;31.40;;;;;;5037132;28;20033;-55
2023/12/02 07:45:53;;;;;;;32.40;5.13;;;23.60;30.10;;;;;;5036883;28;20037;-55
2023/12/02 07:48:19;;;;;;;30.75;5.28;;;24.00;29.30;;;;;;5036816;28;20124;-55
2023/12/02 07:50:45;;;;;;;31.20;4.97;;;24.50;29.10;;;;;;5036884;28;20076;-55
2023/12/02 07:53:11;;;;;;;25.95;5.22;;;25.30;27.70;;;;;;5036786;28;20321;-55
2023/12/02 07:55:37;;;;;;;38.80;5.80;;;24.90;28.00;;;;;;5036815;28;20041;-55
2023/12/02 07:58:02;;;;;;;26.98;4.90;;;24.70;28.10;;;;;;5036681;28;20382;-55
2023/12/02 08:00:28;;;;;;;37.40;5.35;;;24.80;28.00;;;;;;5036679;28;20113;-55
2023/12/02 08:02:54;;;;;;;24.42;4.80;;;24.90;27.50;;;;;;5036695;28;20067;-55
2023/12/02 08:05:20;;;;;;;27.08;5.25;;;25.50;27.50;;;;;;5036644;28;20386;-55
2023/12/02 08:07:46;;;;;;;34.55;6.13;;;26.20;26.50;;;;;;5036290;28;20059;-55
2023/12/02 08:10:12;;;;;;;25.27;5.57;;;26.80;26.60;;;;;;5036602;28;20048;-55
2023/12/02 08:12:38;;;;;;;41.70;6.20;;;26.50;25.70;;;;;;5036566;28;20036;-55
2023/12/02 08:15:05;;;;;;;32.78;5.28;;;26.20;25.50;;;;;;5036385;28;20029;-55
2023/12/02 08:17:31;;;;;;;35.08;5.30;;;26.10;26.20;;;;;;5036217;28;20104;-55
2023/12/02 08:19:57;;;;;;;29.05;5.82;;;26.00;25.70;;;;;;5036381;28;20072;-56
2023/12/02 08:22:24;;;;;;;23.85;4.53;;;25.90;26.00;;;;;;5036230;28;20021;-56
2023/12/02 08:24:53;;;;;;;34.70;6.25;;;25.20;26.00;;;;;;5036143;28;20464;-55
2023/12/02 08:27:19;;;;;;;38.05;6.05;;;24.80;26.10;;;;;;5036182;28;20023;-55
2023/12/02 08:29:45;;;;;;;29.52;5.55;;;25.10;26.60;;;;;;5036222;28;20104;-55
2023/12/02 08:32:12;;;;;;;29.05;5.88;;;25.20;25.60;;;;;;5036156;28;20499;-55
2023/12/02 08:34:38;;;;;;;29.45;5.88;;;25.20;25.80;;;;;;5036174;28;20025;-55
2023/12/02 08:37:04;;;;;;;45.00;9.10;;;25.00;26.20;;;;;;5035962;28;20379;-56
2023/12/02 08:39:30;;;;;;;31.02;5.78;;;25.10;26.60;;;;;;5035868;28;20044;-56
2023/12/02 08:41:55;;;;;;;43.67;6.55;;;25.30;25.70;;;;;;5035917;28;20029;-55
2023/12/02 08:44:23;;;;;;;45.20;5.70;;;25.60;26.30;;;;;;5035880;28;20025;-56
2023/12/02 08:46:52;;;;;;;44.35;7.10;;;25.00;25.90;;;;;;5035852;28;20092;-55
2023/12/02 08:49:18;;;;;;;41.90;8.00;;;25.40;25.50;;;;;;5035653;28;20060;-56
2023/12/02 08:51:44;;;;;;;38.28;7.25;;;25.40;25.90;;;;;;5035721;28;20063;-56
2023/12/02 08:54:10;;;;;;;39.55;5.68;;;25.00;26.60;;;;;;5035793;28;20104;-55
2023/12/02 08:56:36;;;;;;;39.22;6.93;;;24.70;26.70;;;;;;5035682;28;20036;-55
2023/12/02 08:59:02;;;;;;;55.08;7.60;;;24.70;27.10;;;;;;5035653;28;20025;-56
2023/12/02 09:01:28;;;;;;;42.50;6.90;;;24.30;26.50;;;;;;5035736;28;20025;-55
2023/12/02 09:03:54;;;;;;;36.85;6.80;;;24.10;26.70;;;;;;5035636;28;20052;-56
2023/12/02 09:06:20;;;;;;;51.17;7.10;;;24.20;26.80;;;;;;5035797;28;20292;-55
2023/12/02 09:08:47;;;;;;;44.50;6.95;;;24.50;27.70;;;;;;5035370;28;20045;-56
2023/12/02 09:11:13;;;;;;;43.40;6.15;;;24.70;26.70;;;;;;5035385;28;20025;-55
2023/12/02 09:13:39;;;;;;;42.90;6.70;;;25.00;25.70;;;;;;5035489;28;20036;-56
2023/12/02 09:16:08;;;;;;;34.45;5.95;;;24.80;26.40;;;;;;5035459;28;20018;-56
2023/12/02 09:18:36;;;;;;;38.33;5.47;;;24.60;26.60;;;;;;5035423;28;20022;-55
2023/12/02 09:21:02;;;;;;;41.22;7.95;;;24.20;26.10;;;;;;5035475;28;20387;-55
2023/12/02 09:23:29;;;;;;;38.60;7.30;;;24.30;27.50;;;;;;5035362;28;20049;-55
2023/12/02 09:26:01;;;;;;;37.13;5.90;;;24.50;26.70;;;;;;5035130;28;20043;-56
2023/12/02 09:28:29;;;;;;;38.80;6.15;;;24.60;26.90;;;;;;5035642;28;20036;-55
2023/12/02 09:31:05;;;;;;;44.72;6.60;;;24.60;26.20;;;;;;5035329;28;20460;-55
2023/12/02 09:33:32;;;;;;;35.17;7.57;;;24.40;26.50;;;;;;5035648;28;20021;-55
2023/12/02 09:36:01;;;;;;;43.78;6.18;;;24.50;26.30;;;;;;5035270;28;20025;-55
2023/12/02 09:38:27;;;;;;;41.45;6.38;;;24.60;26.80;;;;;;5035197;28;20032;-55
2023/12/02 09:41:15;;;;;;;52.10;6.93;;;24.70;27.00;;;;;;5035138;28;20037;-55
2023/12/02 09:44:08;;;;;;;40.97;5.95;;;24.60;26.30;;;;;;5035220;28;20030;-55
2023/12/02 09:46:37;;;;;;;38.53;6.00;;;24.90;26.70;;;;;;5035008;28;20495;-56
2023/12/02 09:49:40;;;;;;;37.83;5.55;;;24.90;26.00;;;;;;5035314;28;20030;-55
2023/12/02 09:52:15;;;;;;;34.35;6.10;;;25.30;26.00;;;;;;5034941;28;20072;-55
2023/12/02 09:55:08;;;;;;;41.25;6.57;;;25.00;26.00;;;;;;5035162;28;20029;-55
2023/12/02 09:57:45;;;;;;;33.47;5.60;;;25.00;25.90;;;;;;5035088;28;20033;-55
2023/12/02 10:00:25;;;;;;;41.10;8.07;;;25.00;25.20;;;;;;5036660;28;20387;-55
2023/12/02 10:03:07;;;;;;;36.03;5.65;;;24.80;25.70;;;;;;5039047;28;20382;-56
2023/12/02 10:06:07;;;;;;;43.45;5.82;;;24.80;26.00;;;;;;5038725;28;20557;-55
2023/12/02 10:08:56;;;;;;;36.70;6.10;;;24.90;25.10;;;;;;5038789;28;20164;-56
2023/12/02 10:11:43;;;;;;;39.80;6.43;;;25.10;25.60;;;;;;5038752;28;20514;-55
2023/12/02 10:14:11;;;;;;;34.38;5.30;;;25.20;25.20;;;;;;5038804;28;20440;-55
2023/12/02 10:16:39;;;;;;;30.90;5.68;;;24.80;24.70;;;;;;5038644;28;20096;-55
2023/12/02 10:19:11;;;;;;;46.95;6.72;;;24.60;25.80;;;;;;5038521;28;20040;-55
2023/12/02 10:21:41;;;;;;;41.95;5.63;;;24.50;25.00;;;;;;5038512;28;20563;-55
2023/12/02 10:24:10;;;;;;;33.90;5.53;;;24.10;25.20;;;;;;5038608;28;20034;-55
2023/12/02 10:27:03;;;;;;;38.70;6.18;;;24.20;25.20;;;;;;5038456;28;20076;-55
2023/12/02 10:29:43;;;;;;;44.40;6.30;;;24.10;24.70;;;;;;5036786;28;20033;-55
2023/12/02 10:32:28;;;;;;;54.73;6.50;;;23.90;24.90;;;;;;5038431;28;20029;-55
2023/12/02 10:34:56;;;;;;;37.88;5.85;;;24.30;25.00;;;;;;5038237;28;20026;-56
2023/12/02 10:37:35;;;;;;;37.83;6.57;;;24.30;24.30;;;;;;5038204;28;20021;-55
2023/12/02 10:40:13;;;;;;;61.25;10.20;;;24.20;24.60;;;;;;5038176;28;20021;-55
2023/12/02 10:42:56;;;;;;;36.28;6.45;;;24.70;24.70;;;;;;5038406;28;20045;-55
2023/12/02 10:45:25;;;;;;;41.20;6.25;;;24.50;24.30;;;;;;5038223;28;20489;-55
2023/12/02 10:47:53;;;;;;;55.00;7.18;;;24.70;23.80;;;;;;5038404;28;20543;-55
2023/12/02 10:50:20;;;;;;;43.92;7.88;;;24.50;23.30;;;;;;5037769;28;20037;-56
2023/12/02 10:53:03;;;;;;;47.83;7.00;;;24.20;23.50;;;;;;5038125;28;20060;-56
2023/12/02 10:55:36;;;;;;;29.42;4.45;;;24.10;23.50;;;;;;5037951;28;20037;-56
2023/12/02 10:58:04;;;;;;;64.00;8.27;;;24.20;23.70;;;;;;5037855;28;20509;-56
2023/12/02 11:00:34;;;;;;;50.38;6.05;;;24.10;24.40;;;;;;5037861;28;20387;-56
2023/12/02 11:03:15;;;;;;;42.57;5.60;;;23.90;24.10;;;;;;5037687;28;20053;-56
2023/12/02 11:05:45;;;;;;;38.70;4.18;;;23.90;24.30;;;;;;5037728;28;20033;-55
2023/12/02 11:08:27;;;;;;;41.20;6.57;;;23.90;24.70;;;;;;5037957;28;20117;-55
2023/12/02 11:10:57;;;;;;;37.13;6.43;;;24.00;25.10;;;;;;5037585;28;20108;-55
2023/12/02 11:13:26;;;;;;;38.65;6.93;;;24.30;24.40;;;;;;5037724;28;20075;-55
2023/12/02 11:16:04;;;;;;;28.27;5.43;;;24.60;24.40;;;;;;5037591;28;20036;-55
2023/12/02 11:18:56;;;;;;;32.67;5.50;;;24.40;24.60;;;;;;5037657;28;20052;-55
2023/12/02 11:21:32;;;;;;;32.83;5.10;;;24.40;24.60;;;;;;5037168;28;20093;-56
2023/12/02 11:24:12;;;;;;;34.30;5.93;;;24.30;24.70;;;;;;5037503;28;20028;-55
2023/12/02 11:26:51;;;;;;;37.85;7.40;;;24.30;23.90;;;;;;5037307;28;20029;-55
2023/12/02 11:29:38;;;;;;;42.05;5.85;;;24.30;24.10;;;;;;5037275;28;20060;-55
2023/12/02 11:32:29;;;;;;;31.55;5.57;;;24.30;24.40;;;;;;5037252;28;20048;-55
2023/12/02 11:35:16;;;;;;;30.67;5.15;;;24.20;24.40;;;;;;5037108;28;20026;-55
2023/12/02 11:38:01;;;;;;;37.28;6.63;;;24.60;24.10;;;;;;5036987;28;20109;-55
2023/12/02 11:40:50;;;;;;;52.13;8.00;;;24.50;23.80;;;;;;5037260;28;20030;-55
2023/12/02 11:43:43;;;;;;;39.95;6.40;;;24.10;24.30;;;;;;5037057;28;20037;-55
2023/12/02 11:46:18;;;;;;;31.45;4.75;;;23.80;25.30;;;;;;5036951;28;20479;-55
2023/12/02 11:49:19;;;;;;;45.72;7.00;;;23.80;25.30;;;;;;5036700;28;20088;-55
2023/12/02 11:52:12;;;;;;;37.83;6.18;;;23.80;26.60;;;;;;5036837;28;20087;-55
2023/12/02 11:55:05;;;;;;;28.17;4.85;;;23.40;26.90;;;;;;5036907;28;20026;-55
2023/12/02 11:57:51;;;;;;;33.08;4.57;;;23.20;26.50;;;;;;5036799;28;20045;-55
2023/12/02 12:00:48;;;;;;;35.20;4.97;;;23.20;27.10;;;;;;5036807;28;20104;-55
2023/12/02 12:03:32;;;;;;;41.55;6.65;;;23.20;27.00;;;;;;5020791;28;20041;-55
2023/12/02 12:06:24;;;;;;;37.67;6.10;;;23.30;27.70;;;;;;5036622;28;20037;-55
2023/12/02 12:09:12;;;;;;;35.47;5.97;;;23.00;27.80;;;;;;5036684;28;20037;-55
2023/12/02 12:11:39;;;;;;;44.78;7.20;;;23.10;27.60;;;;;;5036500;28;20109;-55
2023/12/02 12:14:07;;;;;;;24.63;5.03;;;23.30;28.00;;;;;;5036492;28;20137;-55
2023/12/02 12:16:33;;;;;;;28.15;4.30;;;23.30;27.40;;;;;;5036341;28;20029;-55
2023/12/02 12:19:00;;;;;;;26.10;4.70;;;22.80;28.30;;;;;;5036397;28;20018;-55
2023/12/02 12:21:26;;;;;;;29.30;5.07;;;22.80;28.00;;;;;;5036463;28;20163;-55
2023/12/02 12:23:52;;;;;;;31.35;4.38;;;22.80;28.20;;;;;;5035834;28;20468;-55
2023/12/02 12:26:18;;;;;;;30.25;4.20;;;22.70;28.80;;;;;;5036035;28;20036;-56
2023/12/02 12:28:44;;;;;;;27.27;6.95;;;22.60;28.40;;;;;;5036081;28;20037;-55
2023/12/02 12:31:10;;;;;;;42.08;5.95;;;22.50;29.80;;;;;;5036335;28;20029;-55
2023/12/02 12:33:39;;;;;;;40.80;5.75;;;22.60;29.90;;;;;;5036160;28;20379;-55
2023/12/02 12:36:09;;;;;;;28.40;4.80;;;22.50;29.80;;;;;;5036007;28;20040;-55
2023/12/02 12:38:37;;;;;;;34.72;5.18;;;22.40;30.00;;;;;;5035988;28;20116;-55
2023/12/02 12:41:06;;;;;;;34.63;4.97;;;22.20;30.60;;;;;;5035898;28;20116;-55
2023/12/02 12:43:32;;;;;;;37.95;5.45;;;22.10;31.00;;;;;;5035905;28;20060;-55